Time;durP1;ratioP1;P1;durP2;ratioP2;P2;SDS_P1;SDS_P2;PMS_P1;PMS_P2;Temp;Humidity;BMP_temperature;BMP_pressure;BME280_temperature;BME280_humidity;BME280_pressure;Samples;Min_cycle;Max_cycle;Signal;HPM_P1;HPM_P2
2021/11/25 00:00:22;;;;;;;22.33;20.03;;;1.90;99.90;;;;;;4988580;28;20454;-77
2021/11/25 00:02:49;;;;;;;24.80;22.17;;;1.80;99.90;;;;;;4995044;28;20543;-77
2021/11/25 00:05:17;;;;;;;24.60;22.00;;;1.60;99.90;;;;;;4981285;28;20442;-77
2021/11/25 00:07:44;;;;;;;23.87;21.33;;;1.50;99.90;;;;;;5000753;28;20986;-77
2021/11/25 00:10:12;;;;;;;25.37;22.50;;;1.40;99.90;;;;;;4996785;28;20991;-77
2021/11/25 00:12:39;;;;;;;23.60;21.20;;;1.30;99.90;;;;;;4980289;28;20488;-77
2021/11/25 00:15:07;;;;;;;23.50;21.10;;;1.30;99.90;;;;;;4979900;28;20446;-78
2021/11/25 00:17:34;;;;;;;23.83;21.33;;;1.20;99.90;;;;;;4980395;28;20442;-77
2021/11/25 00:20:01;;;;;;;25.43;22.83;;;1.10;99.90;;;;;;4979412;28;20515;-77
2021/11/25 00:22:29;;;;;;;26.03;22.67;;;1.10;99.90;;;;;;4991094;28;20458;-78
2021/11/25 00:24:56;;;;;;;23.67;21.20;;;1.00;99.90;;;;;;4995317;28;20471;-77
2021/11/25 00:27:23;;;;;;;25.53;22.77;;;0.90;99.90;;;;;;5011949;28;20729;-77
2021/11/25 00:29:50;;;;;;;24.00;21.43;;;0.90;99.90;;;;;;4993317;28;20536;-77
2021/11/25 00:32:17;;;;;;;23.43;20.93;;;0.80;99.90;;;;;;4990886;28;20465;-77
2021/11/25 00:34:44;;;;;;;23.23;20.83;;;0.70;99.90;;;;;;4997619;28;20500;-77
2021/11/25 00:37:10;;;;;;;26.03;22.33;;;0.70;99.90;;;;;;4978818;28;20454;-77
2021/11/25 00:39:39;;;;;;;23.83;21.33;;;0.70;99.90;;;;;;4985105;28;20500;-78
2021/11/25 00:42:06;;;;;;;24.60;22.10;;;0.60;99.90;;;;;;5009180;28;20535;-77
2021/11/25 00:44:33;;;;;;;24.23;21.67;;;0.50;99.90;;;;;;4993349;28;20941;-77
2021/11/25 00:46:59;;;;;;;25.40;22.03;;;0.60;99.90;;;;;;4990968;28;20954;-77
2021/11/25 00:49:27;;;;;;;26.27;21.10;;;0.50;99.90;;;;;;4992404;28;20453;-77
2021/11/25 00:51:53;;;;;;;24.07;21.33;;;0.50;99.90;;;;;;4988206;28;20464;-78
2021/11/25 00:54:20;;;;;;;24.53;21.97;;;0.50;99.90;;;;;;4995765;28;20503;-77
2021/11/25 00:56:48;;;;;;;26.13;22.37;;;0.40;99.90;;;;;;4991506;28;20436;-77
2021/11/25 00:59:15;;;;;;;24.73;22.07;;;0.40;99.90;;;;;;5004501;28;20759;-77
2021/11/25 01:01:43;;;;;;;26.03;23.07;;;0.40;99.90;;;;;;4989737;28;20491;-78
2021/11/25 01:04:11;;;;;;;25.23;22.53;;;0.40;99.90;;;;;;4989211;28;20858;-77
2021/11/25 01:06:38;;;;;;;23.50;21.07;;;0.30;99.90;;;;;;4991204;28;20441;-77
2021/11/25 01:09:04;;;;;;;24.07;21.60;;;0.30;99.90;;;;;;4988544;28;20808;-78
2021/11/25 01:11:31;;;;;;;25.07;22.47;;;0.30;99.90;;;;;;4995408;28;20440;-77
2021/11/25 01:13:59;;;;;;;23.97;21.60;;;0.20;99.90;;;;;;4991111;28;20472;-77
2021/11/25 01:16:26;;;;;;;24.10;21.60;;;0.20;99.90;;;;;;5005233;28;20873;-77
2021/11/25 01:18:53;;;;;;;23.90;21.37;;;0.10;99.90;;;;;;4990177;28;20500;-77
2021/11/25 01:21:20;;;;;;;26.13;22.80;;;0.10;99.90;;;;;;4988815;28;20448;-78
2021/11/25 01:23:47;;;;;;;26.10;23.33;;;0.00;99.90;;;;;;4990474;28;20461;-77
2021/11/25 01:26:14;;;;;;;24.17;21.60;;;0.00;99.90;;;;;;5022028;28;20816;-78
2021/11/25 01:28:40;;;;;;;25.27;22.57;;;0.00;99.90;;;;;;4995055;28;20492;-78
2021/11/25 01:31:09;;;;;;;24.73;22.00;;;-0.10;99.90;;;;;;4993442;28;20436;-77
2021/11/25 01:33:35;;;;;;;25.93;22.53;;;-0.10;99.90;;;;;;5005291;28;21039;-77
2021/11/25 01:36:03;;;;;;;25.17;22.27;;;-0.10;99.90;;;;;;5005399;28;20453;-77
2021/11/25 01:38:31;;;;;;;28.37;22.60;;;-0.10;99.90;;;;;;4980701;28;21016;-77
2021/11/25 01:40:57;;;;;;;23.63;21.13;;;-0.20;99.90;;;;;;4988862;28;20477;-77
2021/11/25 01:43:26;;;;;;;24.87;22.17;;;-0.20;99.90;;;;;;4993891;28;20453;-77
2021/11/25 01:45:53;;;;;;;25.40;22.10;;;-0.20;99.90;;;;;;4990646;28;20436;-77
2021/11/25 01:48:22;;;;;;;25.30;21.87;;;-0.30;99.90;;;;;;4988077;28;20503;-77
2021/11/25 01:50:50;;;;;;;27.03;22.37;;;-0.30;99.90;;;;;;5002956;28;21148;-77
2021/11/25 01:53:20;;;;;;;24.97;21.53;;;-0.30;99.90;;;;;;4990085;28;20531;-77
2021/11/25 01:55:47;;;;;;;25.90;21.97;;;-0.40;99.90;;;;;;5005956;28;20548;-77
2021/11/25 01:58:14;;;;;;;26.03;22.40;;;-0.40;99.90;;;;;;4989490;28;20446;-77
2021/11/25 02:00:46;;;;;;;24.90;21.43;;;-0.40;99.90;;;;;;5006732;28;20445;-77
2021/11/25 02:03:14;;;;;;;27.17;22.13;;;-0.50;99.90;;;;;;4993596;28;20500;-77
2021/11/25 02:05:42;;;;;;;23.70;21.13;;;-0.40;99.90;;;;;;4989667;28;20445;-77
2021/11/25 02:08:09;;;;;;;25.87;23.10;;;-0.40;99.90;;;;;;5003710;28;20456;-77
2021/11/25 02:10:39;;;;;;;25.57;21.77;;;-0.40;99.90;;;;;;4987905;28;20452;-77
2021/11/25 02:13:06;;;;;;;25.80;22.40;;;-0.40;99.90;;;;;;4987925;28;20465;-77
2021/11/25 02:15:36;;;;;;;23.80;21.10;;;-0.40;99.90;;;;;;4990225;28;20449;-77
2021/11/25 02:18:04;;;;;;;23.83;21.20;;;-0.50;99.90;;;;;;4991187;28;20477;-77
2021/11/25 02:20:34;;;;;;;25.50;21.30;;;-0.50;99.90;;;;;;4993244;28;20476;-77
2021/11/25 02:23:01;;;;;;;26.30;21.93;;;-0.50;99.90;;;;;;4990198;28;20476;-77
2021/11/25 02:25:29;;;;;;;27.00;20.73;;;-0.50;99.90;;;;;;4983729;28;20429;-77
2021/11/25 02:27:55;;;;;;;27.00;21.90;;;-0.50;99.90;;;;;;4989280;28;20432;-77
2021/11/25 02:30:22;;;;;;;24.67;20.43;;;-0.50;99.90;;;;;;4989085;28;20473;-77
2021/11/25 02:32:49;;;;;;;25.50;20.87;;;-0.60;99.90;;;;;;4990233;28;20516;-77
2021/11/25 02:35:19;;;;;;;26.70;22.00;;;-0.60;99.90;;;;;;5024201;28;20511;-77
2021/11/25 02:37:48;;;;;;;24.70;21.07;;;-0.60;99.90;;;;;;4988021;28;20452;-77
2021/11/25 02:40:19;;;;;;;24.97;21.03;;;-0.60;99.90;;;;;;4985295;28;20543;-77
2021/11/25 02:42:50;;;;;;;23.83;20.40;;;-0.70;99.90;;;;;;4989521;28;20623;-77
2021/11/25 02:45:16;;;;;;;23.87;20.03;;;-0.80;99.90;;;;;;4990754;28;20433;-77
2021/11/25 02:47:43;;;;;;;23.33;20.93;;;-0.80;99.90;;;;;;4989605;28;20963;-77
2021/11/25 02:50:10;;;;;;;25.57;20.63;;;-0.80;99.90;;;;;;4988413;28;20520;-77
2021/11/25 02:52:40;;;;;;;24.27;20.33;;;-0.80;99.90;;;;;;4987696;28;20503;-77
2021/11/25 02:55:09;;;;;;;26.90;20.53;;;-0.90;99.90;;;;;;4987283;28;20527;-77
2021/11/25 02:57:36;;;;;;;23.27;19.90;;;-0.90;99.90;;;;;;5001373;28;20884;-77
2021/11/25 03:00:06;;;;;;;28.70;20.37;;;-0.90;99.90;;;;;;4989168;28;20523;-77
2021/11/25 03:02:33;;;;;;;23.10;19.80;;;-0.90;99.90;;;;;;4989978;28;20541;-77
2021/11/25 03:05:00;;;;;;;24.00;19.87;;;-1.00;99.90;;;;;;4990309;28;20430;-77
2021/11/25 03:07:26;;;;;;;26.77;20.23;;;-0.90;99.90;;;;;;4992229;28;20493;-77
2021/11/25 03:09:53;;;;;;;26.13;20.87;;;-0.90;99.90;;;;;;4989014;28;20514;-77
2021/11/25 03:12:21;;;;;;;32.57;22.10;;;-0.90;99.90;;;;;;4987340;28;20526;-77
2021/11/25 03:14:48;;;;;;;28.07;20.97;;;-1.00;99.90;;;;;;5003361;28;20476;-77
2021/11/25 03:17:15;;;;;;;28.63;21.50;;;-1.00;99.90;;;;;;5002301;28;21248;-77
2021/11/25 03:19:42;;;;;;;30.33;21.77;;;-1.00;99.90;;;;;;4989214;28;20496;-77
2021/11/25 03:22:09;;;;;;;28.30;22.07;;;-1.00;99.90;;;;;;4986231;28;20473;-77
2021/11/25 03:24:35;;;;;;;32.40;22.60;;;-1.10;99.90;;;;;;5008587;28;20445;-77
2021/11/25 03:27:02;;;;;;;31.87;22.70;;;-1.10;99.90;;;;;;4989407;28;21023;-77
2021/11/25 03:29:31;;;;;;;28.13;22.30;;;-1.10;99.90;;;;;;4998255;28;20453;-77
2021/11/25 03:31:57;;;;;;;27.70;22.30;;;-1.20;99.90;;;;;;5001921;28;20472;-77
2021/11/25 03:34:24;;;;;;;34.10;22.87;;;-1.20;99.90;;;;;;5019364;28;20461;-78
2021/11/25 03:36:51;;;;;;;32.63;22.57;;;-1.10;99.90;;;;;;4989897;28;20441;-77
2021/11/25 03:39:18;;;;;;;28.73;21.67;;;-1.20;99.90;;;;;;4991703;28;20793;-77
2021/11/25 03:41:45;;;;;;;32.67;22.00;;;-1.20;99.90;;;;;;4988477;28;20432;-77
2021/11/25 03:44:12;;;;;;;30.20;21.67;;;-1.20;99.90;;;;;;4979477;28;20866;-76
2021/11/25 03:46:40;;;;;;;28.53;21.53;;;-1.20;99.90;;;;;;4973741;28;20496;-76
2021/11/25 03:49:08;;;;;;;26.57;20.87;;;-1.20;99.90;;;;;;4994569;28;20476;-77
2021/11/25 03:51:36;;;;;;;30.70;21.03;;;-1.20;99.90;;;;;;4974651;28;20481;-77
2021/11/25 03:54:03;;;;;;;27.00;21.03;;;-1.20;99.90;;;;;;4973727;28;20509;-77
2021/11/25 03:56:30;;;;;;;24.80;21.23;;;-1.20;99.90;;;;;;4976536;28;20455;-77
2021/11/25 03:58:56;;;;;;;26.77;21.00;;;-1.20;99.90;;;;;;4976534;28;20855;-77
2021/11/25 04:01:24;;;;;;;31.27;21.83;;;-1.30;99.90;;;;;;5009010;28;20504;-77
2021/11/25 04:03:52;;;;;;;30.60;22.40;;;-1.30;99.90;;;;;;4977687;28;20484;-77
2021/11/25 04:06:19;;;;;;;28.80;21.53;;;-1.30;99.90;;;;;;4979671;28;20437;-77
2021/11/25 04:08:46;;;;;;;26.47;21.67;;;-1.30;99.90;;;;;;4976342;28;20461;-77
2021/11/25 04:11:13;;;;;;;28.00;21.80;;;-1.40;99.90;;;;;;4979189;28;20810;-77
2021/11/25 04:13:40;;;;;;;30.07;21.13;;;-1.40;99.90;;;;;;4971896;28;20856;-77
2021/11/25 04:16:07;;;;;;;28.73;20.77;;;-1.50;99.90;;;;;;4973284;28;20504;-77
2021/11/25 04:18:35;;;;;;;32.07;21.70;;;-1.50;99.90;;;;;;4973084;28;20453;-77
2021/11/25 04:21:03;;;;;;;27.07;22.10;;;-1.50;99.90;;;;;;4982306;28;20856;-77
2021/11/25 04:23:30;;;;;;;24.27;21.07;;;-1.50;99.90;;;;;;5013969;28;20475;-77
2021/11/25 04:25:57;;;;;;;27.10;20.40;;;-1.40;99.90;;;;;;4984200;28;20457;-77
2021/11/25 04:28:24;;;;;;;29.23;22.17;;;-1.50;99.90;;;;;;4995232;28;20444;-77
2021/11/25 04:36:23;;;;;;;26.10;20.40;;;-1.40;99.90;;;;;;4988977;28;20460;-77
2021/11/25 04:38:49;;;;;;;32.03;22.03;;;-1.40;99.90;;;;;;4993041;28;20432;-77
2021/11/25 04:41:16;;;;;;;26.57;21.13;;;-1.40;99.90;;;;;;4988994;28;20961;-77
2021/11/25 04:43:43;;;;;;;28.80;22.07;;;-1.40;99.90;;;;;;5010691;28;20527;-77
2021/11/25 04:46:10;;;;;;;33.27;22.93;;;-1.40;99.90;;;;;;4988894;28;20985;-77
2021/11/25 04:48:37;;;;;;;27.73;21.37;;;-1.40;99.90;;;;;;5003157;28;20452;-75
2021/11/25 04:51:04;;;;;;;26.87;20.83;;;-1.30;99.90;;;;;;4987859;28;20444;-75
2021/11/25 04:53:32;;;;;;;33.10;22.23;;;-1.30;99.90;;;;;;5002594;28;20472;-75
2021/11/25 04:55:59;;;;;;;26.97;21.83;;;-1.20;99.90;;;;;;4988903;28;20473;-75
2021/11/25 04:58:26;;;;;;;30.13;22.10;;;-1.10;99.90;;;;;;4986736;28;20972;-75
2021/11/25 05:00:53;;;;;;;30.97;23.10;;;-1.00;99.90;;;;;;5007628;28;20996;-78
2021/11/25 05:03:20;;;;;;;31.53;21.63;;;-1.00;99.90;;;;;;4988718;28;21074;-77
2021/11/25 05:05:47;;;;;;;29.07;22.13;;;-0.90;99.90;;;;;;5003554;28;20452;-77
2021/11/25 05:08:14;;;;;;;31.60;22.90;;;-0.90;99.90;;;;;;4989480;28;20453;-78
2021/11/25 05:10:42;;;;;;;29.00;22.80;;;-0.80;99.90;;;;;;5004248;28;20555;-77
2021/11/25 05:13:09;;;;;;;29.30;23.30;;;-0.70;99.90;;;;;;4989418;28;20473;-77
2021/11/25 05:15:36;;;;;;;26.00;20.77;;;-0.70;99.90;;;;;;4990053;28;20484;-77
2021/11/25 05:18:04;;;;;;;27.47;22.87;;;-0.60;99.90;;;;;;4991668;28;20996;-78
2021/11/25 05:20:30;;;;;;;29.83;23.07;;;-0.60;99.90;;;;;;5010409;28;20445;-77
2021/11/25 05:22:57;;;;;;;28.50;22.27;;;-0.60;99.90;;;;;;4991622;28;20469;-77
2021/11/25 05:25:25;;;;;;;31.43;22.03;;;-0.60;99.90;;;;;;4987954;28;20433;-77
2021/11/25 05:27:53;;;;;;;30.27;25.83;;;-0.50;99.90;;;;;;4992290;28;20495;-77
2021/11/25 05:30:21;;;;;;;33.23;26.10;;;-0.50;99.90;;;;;;4989328;28;20946;-78
2021/11/25 05:32:50;;;;;;;31.07;25.40;;;-0.40;99.90;;;;;;5008076;28;21023;-77
2021/11/25 05:35:17;;;;;;;33.40;25.80;;;-0.40;99.90;;;;;;4988751;28;20973;-77
2021/11/25 05:37:44;;;;;;;28.93;24.20;;;-0.40;99.90;;;;;;4986561;28;20452;-78
2021/11/25 05:40:13;;;;;;;33.10;25.47;;;-0.40;99.90;;;;;;4991134;28;20440;-79
2021/11/25 05:42:41;;;;;;;31.07;26.07;;;-0.30;99.90;;;;;;4986587;28;20851;-77
2021/11/25 05:45:13;;;;;;;30.30;25.73;;;-0.30;99.90;;;;;;5007280;28;20456;-77
2021/11/25 05:47:41;;;;;;;31.43;26.07;;;-0.20;99.90;;;;;;4988868;28;20440;-77
2021/11/25 05:50:11;;;;;;;31.03;26.20;;;-0.20;99.90;;;;;;5007768;28;20468;-77
2021/11/25 05:52:38;;;;;;;29.67;26.37;;;-0.20;99.90;;;;;;4984446;28;20472;-77
2021/11/25 05:55:06;;;;;;;32.10;26.60;;;-0.10;99.90;;;;;;4989324;28;20550;-78
2021/11/25 05:57:33;;;;;;;29.50;24.53;;;-0.10;99.90;;;;;;4994136;28;20511;-78
2021/11/25 06:00:00;;;;;;;33.00;27.20;;;-0.10;99.90;;;;;;4989222;28;20491;-78
2021/11/25 06:02:28;;;;;;;31.77;27.33;;;0.00;99.90;;;;;;4978212;28;20687;-77
2021/11/25 06:04:55;;;;;;;32.97;25.87;;;0.00;99.90;;;;;;4990843;28;20524;-77
2021/11/25 06:07:22;;;;;;;31.17;25.70;;;0.10;99.90;;;;;;4975636;28;20441;-77
2021/11/25 06:09:49;;;;;;;32.73;25.37;;;0.10;99.90;;;;;;5003461;28;20527;-78
2021/11/25 06:12:15;;;;;;;29.50;25.70;;;0.20;99.90;;;;;;4979331;28;20470;-78
2021/11/25 06:14:42;;;;;;;27.33;24.40;;;0.20;99.90;;;;;;4977471;28;21071;-78
2021/11/25 06:17:09;;;;;;;29.97;25.17;;;0.20;99.90;;;;;;4977037;28;21004;-78
2021/11/25 06:19:37;;;;;;;29.77;26.10;;;0.30;99.90;;;;;;4975624;28;20477;-78
2021/11/25 06:22:04;;;;;;;32.37;27.13;;;0.30;99.90;;;;;;4974431;28;20480;-78
2021/11/25 06:24:31;;;;;;;28.87;25.87;;;0.30;99.90;;;;;;4976730;28;20442;-77
2021/11/25 06:26:58;;;;;;;28.77;25.57;;;0.30;99.90;;;;;;5022222;28;20449;-77
2021/11/25 06:29:25;;;;;;;30.20;26.23;;;0.40;99.90;;;;;;4989420;28;20445;-77
2021/11/25 06:31:52;;;;;;;30.13;25.30;;;0.50;99.90;;;;;;4978866;28;20449;-79
2021/11/25 06:34:19;;;;;;;27.80;24.60;;;0.50;99.90;;;;;;4976802;28;20446;-78
2021/11/25 06:36:48;;;;;;;27.90;24.90;;;0.50;99.90;;;;;;4977083;28;20485;-78
2021/11/25 06:39:15;;;;;;;28.60;25.53;;;0.50;99.90;;;;;;4978460;28;20488;-78
2021/11/25 06:41:42;;;;;;;27.83;24.60;;;0.50;99.90;;;;;;4982451;28;20449;-78
2021/11/25 06:44:09;;;;;;;26.93;24.07;;;0.50;99.90;;;;;;4977647;28;20442;-78
2021/11/25 06:46:36;;;;;;;26.97;24.27;;;0.50;99.90;;;;;;4982000;28;20468;-77
2021/11/25 06:49:03;;;;;;;28.83;24.73;;;0.60;99.90;;;;;;5013632;28;20901;-78
2021/11/25 06:51:31;;;;;;;27.63;24.73;;;0.70;99.90;;;;;;4995232;28;20456;-75
2021/11/25 06:53:59;;;;;;;31.00;26.07;;;0.70;99.90;;;;;;4984831;28;20454;-75
2021/11/25 06:56:27;;;;;;;29.20;26.07;;;0.60;99.90;;;;;;4982965;28;20468;-75
2021/11/25 06:58:56;;;;;;;29.90;26.63;;;0.60;99.90;;;;;;4974162;28;20990;-75
2021/11/25 07:01:24;;;;;;;30.67;27.33;;;0.60;99.90;;;;;;4972049;28;20471;-75
2021/11/25 07:03:51;;;;;;;35.77;28.30;;;0.60;99.90;;;;;;4972902;28;20888;-75
2021/11/25 07:06:18;;;;;;;33.00;28.13;;;0.70;99.90;;;;;;4987603;28;20505;-75
2021/11/25 07:08:46;;;;;;;33.30;28.27;;;0.70;99.90;;;;;;4972776;28;20457;-74
2021/11/25 07:11:14;;;;;;;30.57;27.33;;;0.70;99.90;;;;;;4983627;28;20468;-78
2021/11/25 07:13:41;;;;;;;30.93;26.73;;;0.70;99.90;;;;;;4987021;28;21010;-76
2021/11/25 07:16:08;;;;;;;32.30;27.87;;;0.80;99.90;;;;;;4980819;28;20477;-76
2021/11/25 07:18:35;;;;;;;32.57;27.30;;;0.90;99.90;;;;;;4988111;28;20882;-77
2021/11/25 07:21:01;;;;;;;34.13;27.03;;;0.90;99.90;;;;;;4982434;28;20449;-77
2021/11/25 07:23:28;;;;;;;29.23;25.33;;;0.90;99.90;;;;;;4994868;28;20469;-77
2021/11/25 07:25:55;;;;;;;31.27;25.90;;;1.00;99.90;;;;;;4983296;28;20438;-77
2021/11/25 07:28:23;;;;;;;28.47;25.37;;;1.00;99.90;;;;;;4991627;28;20472;-77
2021/11/25 07:30:51;;;;;;;28.23;25.30;;;1.10;99.90;;;;;;4985517;28;20966;-77
2021/11/25 07:33:18;;;;;;;27.30;24.40;;;1.10;99.90;;;;;;4985502;28;20455;-77
2021/11/25 07:35:46;;;;;;;27.67;24.77;;;1.20;99.90;;;;;;4990522;28;20477;-77
2021/11/25 07:38:14;;;;;;;28.80;25.77;;;1.20;99.90;;;;;;4990303;28;20449;-76
2021/11/25 07:40:42;;;;;;;30.37;26.93;;;1.10;99.90;;;;;;4983714;28;20480;-77
2021/11/25 07:43:09;;;;;;;27.30;24.50;;;1.10;99.90;;;;;;5003770;28;20498;-77
2021/11/25 07:45:37;;;;;;;28.27;25.13;;;1.20;99.90;;;;;;4978327;28;20936;-76
2021/11/25 07:48:05;;;;;;;27.03;24.23;;;1.20;99.90;;;;;;4989584;28;20436;-76
2021/11/25 07:50:32;;;;;;;26.50;23.70;;;1.30;99.90;;;;;;4986387;28;20521;-77
2021/11/25 07:52:59;;;;;;;27.77;24.90;;;1.30;99.90;;;;;;5005284;28;20471;-77
2021/11/25 07:55:27;;;;;;;28.00;25.10;;;1.30;99.90;;;;;;4983830;28;20480;-76
2021/11/25 07:57:54;;;;;;;27.07;24.17;;;1.30;99.90;;;;;;4990282;28;20445;-77
2021/11/25 08:00:23;;;;;;;27.53;24.63;;;1.30;99.90;;;;;;5006701;28;20453;-77
2021/11/25 08:02:51;;;;;;;26.33;23.50;;;1.40;99.90;;;;;;4990682;28;20467;-77
2021/11/25 08:05:19;;;;;;;27.33;24.60;;;1.40;99.90;;;;;;4993306;28;20497;-77
2021/11/25 08:07:46;;;;;;;28.50;24.53;;;1.40;99.90;;;;;;4991100;28;20437;-76
2021/11/25 08:10:14;;;;;;;28.97;24.83;;;1.40;99.90;;;;;;5010849;28;20502;-77
2021/11/25 08:12:42;;;;;;;31.10;25.40;;;1.50;99.90;;;;;;4986765;28;20521;-77
2021/11/25 08:15:10;;;;;;;28.73;24.77;;;1.50;99.90;;;;;;4992519;28;20508;-77
2021/11/25 08:17:37;;;;;;;27.40;24.57;;;1.50;99.90;;;;;;4988790;28;20431;-77
2021/11/25 08:20:07;;;;;;;28.17;25.13;;;1.50;99.90;;;;;;5024394;28;20453;-77
2021/11/25 08:22:34;;;;;;;28.97;25.33;;;1.60;99.90;;;;;;4993469;28;20462;-77
2021/11/25 08:25:02;;;;;;;26.60;23.93;;;1.70;99.90;;;;;;5006320;28;20517;-77
2021/11/25 08:27:29;;;;;;;28.17;25.27;;;1.80;99.90;;;;;;4989787;28;20502;-77
2021/11/25 08:29:56;;;;;;;29.03;25.90;;;1.80;99.90;;;;;;4993850;28;20438;-77
2021/11/25 08:32:23;;;;;;;28.83;25.90;;;1.80;99.90;;;;;;4988805;28;20468;-77
2021/11/25 08:34:50;;;;;;;27.90;25.10;;;1.80;99.90;;;;;;4995257;28;20442;-77
2021/11/25 08:37:18;;;;;;;27.53;24.73;;;1.90;99.90;;;;;;4989480;28;20487;-77
2021/11/25 08:39:44;;;;;;;26.83;24.10;;;1.90;99.90;;;;;;4988150;28;20455;-77
2021/11/25 08:42:11;;;;;;;27.73;25.00;;;2.00;99.90;;;;;;5002633;28;20782;-77
2021/11/25 08:44:38;;;;;;;28.17;25.20;;;2.10;99.90;;;;;;4990163;28;20485;-77
2021/11/25 08:47:05;;;;;;;26.73;24.00;;;2.10;99.90;;;;;;4991730;28;20441;-77
2021/11/25 08:49:32;;;;;;;28.53;25.57;;;2.20;99.90;;;;;;5006176;28;20472;-77
2021/11/25 08:51:59;;;;;;;27.53;24.73;;;2.10;99.90;;;;;;5005561;28;20473;-77
2021/11/25 08:54:27;;;;;;;27.67;24.87;;;2.10;99.90;;;;;;4992969;28;20447;-77
2021/11/25 08:56:54;;;;;;;28.17;25.27;;;2.20;99.90;;;;;;4991985;28;20478;-77
2021/11/25 08:59:21;;;;;;;29.00;25.97;;;2.10;99.90;;;;;;5003811;28;20451;-77
2021/11/25 09:01:48;;;;;;;28.07;25.27;;;2.20;99.90;;;;;;4993287;28;20467;-77
2021/11/25 09:04:15;;;;;;;29.57;26.47;;;2.20;99.90;;;;;;4988061;28;20571;-76
2021/11/25 09:06:42;;;;;;;28.07;25.20;;;2.20;99.90;;;;;;4991050;28;20499;-77
2021/11/25 09:09:10;;;;;;;29.00;26.07;;;2.10;99.90;;;;;;5004663;28;20453;-77
2021/11/25 09:11:38;;;;;;;31.07;26.30;;;2.10;99.90;;;;;;5006902;28;20508;-77
2021/11/25 09:14:06;;;;;;;30.23;25.93;;;2.00;99.90;;;;;;4991358;28;20471;-77
2021/11/25 09:16:33;;;;;;;27.00;24.17;;;2.10;99.90;;;;;;4987217;28;20527;-76
2021/11/25 09:19:00;;;;;;;27.77;24.97;;;2.10;99.90;;;;;;4992627;28;20441;-77
2021/11/25 09:21:29;;;;;;;28.67;25.63;;;2.20;99.90;;;;;;4991253;28;20471;-76
2021/11/25 09:23:56;;;;;;;29.83;26.10;;;2.20;99.90;;;;;;5005764;28;21032;-77
2021/11/25 09:26:23;;;;;;;28.53;25.63;;;2.30;99.90;;;;;;4990048;28;20433;-77
2021/11/25 09:28:54;;;;;;;27.73;24.80;;;2.30;99.90;;;;;;4991848;28;20535;-77
2021/11/25 09:31:20;;;;;;;27.23;24.37;;;2.20;99.90;;;;;;4993995;28;20445;-77
2021/11/25 09:33:48;;;;;;;28.47;25.60;;;2.20;99.90;;;;;;4990211;28;20487;-78
2021/11/25 09:36:14;;;;;;;28.17;24.17;;;2.20;99.90;;;;;;4988249;28;20840;-77
2021/11/25 09:38:41;;;;;;;28.40;25.33;;;2.30;99.90;;;;;;4987834;28;20437;-77
2021/11/25 09:41:08;;;;;;;28.87;25.33;;;2.30;99.90;;;;;;5006778;28;20526;-77
2021/11/25 09:43:35;;;;;;;30.67;25.77;;;2.20;99.90;;;;;;4991449;28;20471;-77
2021/11/25 09:46:05;;;;;;;28.57;25.53;;;2.30;99.90;;;;;;4991233;28;20437;-77
2021/11/25 09:48:34;;;;;;;28.00;25.00;;;2.30;99.90;;;;;;5011206;28;20457;-77
2021/11/25 09:51:01;;;;;;;27.10;24.40;;;2.30;99.90;;;;;;4990554;28;20451;-77
2021/11/25 09:53:29;;;;;;;27.50;24.57;;;2.30;99.90;;;;;;4999949;28;20466;-77
2021/11/25 09:55:57;;;;;;;26.63;23.90;;;2.40;99.90;;;;;;4989353;28;20526;-77
2021/11/25 09:58:26;;;;;;;28.57;25.63;;;2.30;99.90;;;;;;4987153;28;20462;-77
2021/11/25 10:00:58;;;;;;;26.67;23.77;;;2.30;99.90;;;;;;4989183;28;20504;-77
2021/11/25 10:03:26;;;;;;;28.07;25.07;;;2.30;99.90;;;;;;4986987;28;20860;-76
2021/11/25 10:05:56;;;;;;;28.53;25.60;;;2.30;99.90;;;;;;4990765;28;20857;-77
2021/11/25 10:08:25;;;;;;;28.93;25.67;;;2.30;99.90;;;;;;4990324;28;21116;-77
2021/11/25 10:11:02;;;;;;;28.63;25.70;;;2.30;99.90;;;;;;4988920;28;20461;-78
2021/11/25 10:13:36;;;;;;;28.50;25.63;;;2.30;99.90;;;;;;4974652;28;20989;-77
2021/11/25 10:16:06;;;;;;;28.07;24.97;;;2.20;99.90;;;;;;4989417;28;20476;-77
2021/11/25 10:18:36;;;;;;;26.97;24.10;;;2.20;99.90;;;;;;4975917;28;20440;-78
2021/11/25 10:21:06;;;;;;;31.63;26.90;;;2.20;99.90;;;;;;4975169;28;20441;-77
2021/11/25 10:23:33;;;;;;;27.50;24.60;;;2.30;99.90;;;;;;4972262;28;20462;-77
2021/11/25 10:26:02;;;;;;;27.60;24.70;;;2.30;99.90;;;;;;4982029;28;20441;-76
2021/11/25 10:28:42;;;;;;;29.63;26.07;;;2.40;99.90;;;;;;4980121;28;20433;-77
2021/11/25 10:31:12;;;;;;;29.33;26.13;;;2.40;99.90;;;;;;4985351;28;20534;-77
2021/11/25 10:33:48;;;;;;;29.93;26.27;;;2.40;99.90;;;;;;4976278;28;20472;-78
2021/11/25 10:39:07;;;;;;;28.40;25.37;;;2.40;99.90;;;;;;4990836;28;20438;-77
2021/11/25 10:41:35;;;;;;;27.77;24.77;;;2.40;99.90;;;;;;4988845;28;20964;-77
2021/11/25 10:44:13;;;;;;;27.90;24.53;;;2.40;99.90;;;;;;4980118;28;20493;-77
2021/11/25 10:46:44;;;;;;;27.97;24.70;;;2.40;99.90;;;;;;4981721;28;20440;-78
2021/11/25 10:49:13;;;;;;;28.07;25.10;;;2.40;99.90;;;;;;4989860;28;20441;-77
2021/11/25 10:51:42;;;;;;;26.63;23.83;;;2.40;99.90;;;;;;5007111;28;20448;-77
2021/11/25 10:54:11;;;;;;;26.87;24.10;;;2.40;99.90;;;;;;4990877;28;20599;-77
2021/11/25 10:56:41;;;;;;;28.53;25.00;;;2.50;99.90;;;;;;4985619;28;20493;-77
2021/11/25 10:59:09;;;;;;;29.63;25.27;;;2.50;99.90;;;;;;4978565;28;20945;-76
2021/11/25 11:01:39;;;;;;;27.40;24.47;;;2.50;99.90;;;;;;4981863;28;20554;-77
2021/11/25 11:04:08;;;;;;;30.03;26.40;;;2.60;99.90;;;;;;4976561;28;20445;-77
2021/11/25 11:06:38;;;;;;;30.77;26.80;;;2.40;99.90;;;;;;4974468;28;20194;-77
2021/11/25 11:09:07;;;;;;;28.73;25.70;;;2.40;99.90;;;;;;4999671;28;20460;-77
2021/11/25 11:11:37;;;;;;;29.73;25.73;;;2.40;99.90;;;;;;5001881;28;20445;-78
2021/11/25 11:14:18;;;;;;;27.00;24.20;;;2.50;99.90;;;;;;4982117;28;20455;-76
2021/11/25 11:16:49;;;;;;;31.23;25.77;;;2.60;99.90;;;;;;4970544;28;20472;-76
2021/11/25 11:19:17;;;;;;;31.57;26.03;;;2.60;99.90;;;;;;4967731;28;20457;-76
2021/11/25 11:21:48;;;;;;;29.00;26.03;;;2.50;99.90;;;;;;4974013;28;20961;-76
2021/11/25 11:24:18;;;;;;;30.83;26.97;;;2.60;99.90;;;;;;4975196;28;20444;-76
2021/11/25 11:26:47;;;;;;;29.60;26.53;;;2.60;99.90;;;;;;4995208;28;20476;-76
2021/11/25 11:29:17;;;;;;;29.90;26.60;;;2.70;99.90;;;;;;5017785;28;21008;-76
2021/11/25 11:31:46;;;;;;;25.83;23.17;;;2.70;99.90;;;;;;4998983;28;20222;-76
2021/11/25 11:34:14;;;;;;;28.93;24.83;;;2.80;99.90;;;;;;4984356;28;20202;-77
2021/11/25 11:36:43;;;;;;;28.87;25.33;;;2.90;99.90;;;;;;4983848;28;20557;-77
2021/11/25 11:39:13;;;;;;;27.37;24.43;;;2.80;99.90;;;;;;5001169;28;20252;-76
2021/11/25 11:41:42;;;;;;;28.10;25.10;;;2.90;99.90;;;;;;4971957;28;20451;-78
2021/11/25 11:44:10;;;;;;;29.30;26.20;;;2.90;99.90;;;;;;4972613;28;20750;-76
2021/11/25 11:46:38;;;;;;;28.23;25.23;;;2.90;99.90;;;;;;5007640;28;20845;-76
2021/11/25 11:49:06;;;;;;;28.77;25.67;;;2.80;99.90;;;;;;4995275;28;20444;-77
2021/11/25 11:51:34;;;;;;;28.40;25.40;;;2.70;99.90;;;;;;4985779;28;20480;-77
2021/11/25 11:54:03;;;;;;;35.73;27.20;;;2.70;99.90;;;;;;4974364;28;20456;-76
2021/11/25 11:56:43;;;;;;;29.43;26.27;;;2.60;99.90;;;;;;4979615;28;20481;-76
2021/11/25 11:59:15;;;;;;;29.17;26.07;;;2.70;99.90;;;;;;4973042;28;20449;-77
2021/11/25 12:01:43;;;;;;;30.53;25.60;;;2.70;99.90;;;;;;5006271;28;20455;-76
2021/11/25 12:04:15;;;;;;;30.97;26.63;;;2.70;99.90;;;;;;4988702;28;20461;-77
2021/11/25 12:06:48;;;;;;;28.37;25.33;;;2.60;99.90;;;;;;4987141;28;20472;-77
2021/11/25 12:09:34;;;;;;;31.60;27.03;;;2.60;99.90;;;;;;5002184;28;20461;-77
2021/11/25 12:12:16;;;;;;;32.63;26.50;;;2.40;99.90;;;;;;4986172;28;20453;-77
2021/11/25 12:14:52;;;;;;;28.23;24.87;;;2.50;99.90;;;;;;4972715;28;20460;-76
2021/11/25 12:17:32;;;;;;;30.13;26.07;;;2.40;99.90;;;;;;4971217;28;20516;-76
2021/11/25 12:20:19;;;;;;;33.23;26.57;;;2.50;99.90;;;;;;4969857;28;20449;-77
2021/11/25 12:22:48;;;;;;;31.20;26.80;;;2.50;99.90;;;;;;5001798;28;20576;-76
2021/11/25 12:25:30;;;;;;;30.97;26.30;;;2.40;99.90;;;;;;4975078;28;20524;-76
2021/11/25 12:28:20;;;;;;;33.77;28.47;;;2.40;99.90;;;;;;5001186;28;20449;-77
2021/11/25 12:30:53;;;;;;;32.00;26.57;;;2.40;99.90;;;;;;5003567;28;20544;-77
2021/11/25 12:33:41;;;;;;;28.63;25.43;;;2.40;99.90;;;;;;4970862;28;20469;-77
2021/11/25 12:36:09;;;;;;;29.93;25.03;;;2.50;99.90;;;;;;4971930;28;20938;-77
2021/11/25 12:38:37;;;;;;;31.90;26.20;;;2.60;99.90;;;;;;4986823;28;20841;-77
2021/11/25 12:41:06;;;;;;;32.53;28.93;;;2.50;99.90;;;;;;4970975;28;20513;-76
2021/11/25 12:43:40;;;;;;;31.13;27.80;;;2.50;99.90;;;;;;4971732;28;20461;-76
2021/11/25 12:46:10;;;;;;;32.17;26.73;;;2.50;99.90;;;;;;5008053;28;20445;-77